Time;durP1;ratioP1;P1;durP2;ratioP2;P2;SDS_P1;SDS_P2;PMS_P1;PMS_P2;Temp;Humidity;BMP_temperature;BMP_pressure;BME280_temperature;BME280_humidity;BME280_pressure;Samples;Min_cycle;Max_cycle;Signal;HPM_P1;HPM_P2
2022/08/14 00:02:03;;;;;;;2.70;2.50;;;20.50;93.30;;;;;;5012950;28;20029;-84
2022/08/14 00:04:32;;;;;;;8.70;3.17;;;20.40;93.30;;;;;;5014352;28;20029;-84
2022/08/14 00:06:58;;;;;;;6.55;2.58;;;20.40;93.60;;;;;;5013334;28;20476;-85
2022/08/14 00:09:24;;;;;;;3.55;2.30;;;20.30;93.90;;;;;;5015192;28;20091;-84
2022/08/14 00:11:50;;;;;;;4.10;2.50;;;20.30;94.20;;;;;;5014593;28;20026;-84
2022/08/14 00:14:15;;;;;;;4.57;2.58;;;20.30;94.60;;;;;;5014196;28;20022;-85
2022/08/14 00:16:42;;;;;;;3.10;2.80;;;20.30;94.10;;;;;;5014610;28;20076;-84
2022/08/14 00:19:08;;;;;;;2.83;2.58;;;20.30;94.00;;;;;;5014983;28;20547;-87
2022/08/14 00:21:34;;;;;;;2.40;2.20;;;20.30;94.30;;;;;;5013232;28;20079;-84
2022/08/14 00:24:00;;;;;;;3.45;2.55;;;20.30;94.00;;;;;;5013610;28;20033;-88
2022/08/14 00:26:25;;;;;;;3.22;2.70;;;20.30;94.20;;;;;;5013845;28;20160;-85
2022/08/14 00:28:52;;;;;;;3.00;2.70;;;20.20;94.30;;;;;;5012854;28;20030;-86
2022/08/14 00:31:18;;;;;;;2.83;2.40;;;20.20;94.30;;;;;;5014640;28;20076;-82
2022/08/14 00:33:44;;;;;;;2.67;2.47;;;20.20;94.40;;;;;;5013393;28;20028;-83
2022/08/14 00:36:10;;;;;;;2.40;2.20;;;20.10;94.60;;;;;;5013107;28;20392;-83
2022/08/14 00:38:36;;;;;;;2.67;2.47;;;20.10;94.70;;;;;;5013026;28;20445;-83
2022/08/14 00:41:05;;;;;;;2.38;2.20;;;20.10;94.70;;;;;;5014157;28;20032;-82
2022/08/14 00:43:32;;;;;;;3.00;2.80;;;20.00;94.60;;;;;;5013379;28;20048;-85
2022/08/14 00:46:05;;;;;;;3.00;2.53;;;20.00;94.60;;;;;;5014162;28;20510;-84
2022/08/14 00:48:30;;;;;;;2.47;2.28;;;20.00;94.70;;;;;;5013518;28;20061;-85
2022/08/14 00:50:56;;;;;;;3.67;2.60;;;20.00;94.70;;;;;;5013216;28;20476;-85
2022/08/14 00:53:24;;;;;;;6.78;2.45;;;20.00;94.70;;;;;;5012359;28;20037;-85
2022/08/14 00:55:51;;;;;;;2.83;2.35;;;19.90;94.80;;;;;;5012239;28;20504;-86
2022/08/14 00:58:32;;;;;;;2.47;2.28;;;19.90;94.90;;;;;;5012248;28;20480;-86
2022/08/14 01:01:10;;;;;;;4.00;2.55;;;19.90;95.00;;;;;;5014199;28;20057;-86
2022/08/14 01:03:38;;;;;;;4.10;2.70;;;19.90;95.10;;;;;;5013812;28;20030;-86
2022/08/14 01:06:07;;;;;;;2.75;2.53;;;19.80;95.20;;;;;;5012782;28;20029;-86
2022/08/14 01:08:34;;;;;;;2.78;2.58;;;19.80;95.30;;;;;;5013626;28;20029;-86
2022/08/14 01:11:00;;;;;;;4.05;2.72;;;19.80;95.40;;;;;;5014406;28;20044;-86
2022/08/14 01:13:35;;;;;;;2.83;2.60;;;19.80;95.60;;;;;;5011416;28;20026;-81
2022/08/14 01:16:04;;;;;;;2.60;2.33;;;19.70;95.60;;;;;;5011464;28;20029;-82
2022/08/14 01:21:23;;;;;;;3.03;2.42;;;19.80;95.70;;;;;;5013113;28;20395;-81
2022/08/14 01:23:51;;;;;;;4.00;2.38;;;19.70;95.90;;;;;;5012967;28;20416;-82
2022/08/14 01:26:22;;;;;;;2.70;2.50;;;19.70;96.00;;;;;;5013232;28;20165;-81
2022/08/14 01:28:54;;;;;;;3.15;2.83;;;19.60;96.00;;;;;;5012254;28;20022;-81
2022/08/14 01:31:21;;;;;;;3.20;2.60;;;19.60;96.10;;;;;;5012130;28;20091;-83
2022/08/14 01:33:49;;;;;;;2.88;2.60;;;19.60;96.20;;;;;;5012311;28;20029;-82
2022/08/14 01:36:16;;;;;;;2.78;2.45;;;19.60;96.30;;;;;;5013175;28;20025;-82
2022/08/14 01:38:44;;;;;;;2.95;2.50;;;19.60;96.40;;;;;;5012223;28;20030;-82
2022/08/14 01:41:21;;;;;;;3.00;2.67;;;19.60;96.50;;;;;;5011692;28;20117;-83
2022/08/14 01:44:00;;;;;;;2.60;2.30;;;19.50;96.50;;;;;;5012241;28;20041;-83
2022/08/14 01:46:28;;;;;;;2.70;2.50;;;19.50;96.60;;;;;;5012637;28;20117;-83
2022/08/14 01:48:55;;;;;;;5.50;3.25;;;19.50;96.70;;;;;;5010767;28;20021;-86
2022/08/14 01:51:23;;;;;;;5.07;2.60;;;19.40;97.10;;;;;;5013415;28;20037;-84
2022/08/14 01:53:52;;;;;;;5.00;2.75;;;19.40;96.80;;;;;;5013180;28;20057;-86
2022/08/14 01:56:19;;;;;;;4.90;2.78;;;19.40;96.90;;;;;;5012244;28;20026;-86
2022/08/14 01:58:48;;;;;;;3.17;2.58;;;19.40;97.00;;;;;;5012784;28;20512;-86
2022/08/14 02:01:23;;;;;;;8.02;2.38;;;19.40;97.00;;;;;;5012974;28;20084;-85
2022/08/14 02:03:49;;;;;;;6.22;2.70;;;19.40;97.00;;;;;;5011023;28;20038;-85
2022/08/14 02:06:14;;;;;;;3.85;2.55;;;19.40;97.10;;;;;;4991840;28;20027;-84
2022/08/14 02:08:41;;;;;;;2.92;2.60;;;19.40;97.10;;;;;;5009205;28;20084;-85
2022/08/14 02:11:15;;;;;;;4.68;2.65;;;19.40;97.10;;;;;;5012441;28;20484;-83
2022/08/14 02:13:43;;;;;;;2.80;2.60;;;19.40;97.00;;;;;;5011219;28;20497;-83
2022/08/14 02:16:16;;;;;;;11.27;2.63;;;19.40;97.00;;;;;;5012310;28;20496;-84
2022/08/14 02:18:42;;;;;;;3.60;2.83;;;19.40;97.10;;;;;;5010321;28;20036;-83
2022/08/14 02:21:10;;;;;;;2.40;2.30;;;19.40;97.20;;;;;;5012476;28;20080;-84
2022/08/14 02:23:36;;;;;;;3.25;2.80;;;19.30;97.30;;;;;;5010755;28;20072;-81
2022/08/14 02:26:14;;;;;;;7.03;2.70;;;19.30;97.40;;;;;;5013765;28;20018;-90
2022/08/14 02:28:40;;;;;;;6.38;2.60;;;19.20;97.40;;;;;;5012412;28;20030;-85
2022/08/14 02:31:07;;;;;;;3.03;2.35;;;19.20;97.60;;;;;;5011384;28;20076;-82
2022/08/14 02:33:34;;;;;;;4.22;2.83;;;19.20;97.70;;;;;;5010243;28;20080;-82
2022/08/14 02:36:02;;;;;;;5.45;2.60;;;19.20;97.70;;;;;;5012037;28;20030;-82
2022/08/14 02:38:29;;;;;;;4.35;2.92;;;19.20;97.80;;;;;;5011556;28;20021;-82
2022/08/14 02:40:58;;;;;;;2.97;2.35;;;19.20;97.90;;;;;;5011998;28;20010;-82
2022/08/14 02:43:26;;;;;;;3.88;2.38;;;19.20;97.90;;;;;;5010050;28;20520;-83
2022/08/14 02:45:51;;;;;;;4.82;2.35;;;19.20;98.00;;;;;;5010691;28;20455;-83
2022/08/14 02:48:17;;;;;;;3.17;2.90;;;19.20;98.00;;;;;;5011059;28;20109;-83
2022/08/14 02:50:42;;;;;;;2.95;2.40;;;19.20;98.00;;;;;;5010805;28;20072;-83
2022/08/14 02:53:10;;;;;;;5.18;2.90;;;19.20;98.10;;;;;;5009685;28;20073;-83
2022/08/14 02:55:39;;;;;;;4.82;2.92;;;19.20;98.10;;;;;;5011725;28;20048;-83
2022/08/14 02:58:05;;;;;;;4.35;2.58;;;19.20;98.10;;;;;;5010887;28;20080;-82
2022/08/14 03:00:34;;;;;;;3.65;2.53;;;19.20;98.30;;;;;;5011883;28;20064;-83
2022/08/14 03:03:01;;;;;;;4.35;2.60;;;19.20;98.30;;;;;;5011068;28;20084;-83
2022/08/14 03:05:30;;;;;;;4.97;2.83;;;19.20;98.40;;;;;;5010050;28;20025;-82
2022/08/14 03:08:11;;;;;;;4.50;2.50;;;19.10;98.30;;;;;;5010905;28;20140;-83
2022/08/14 03:10:37;;;;;;;2.88;2.50;;;19.10;98.40;;;;;;5010721;28;20383;-84
2022/08/14 03:13:03;;;;;;;5.20;2.70;;;19.10;98.40;;;;;;5009584;28;20029;-84
2022/08/14 03:15:45;;;;;;;6.10;2.70;;;19.10;98.50;;;;;;5010558;28;20029;-84
2022/08/14 03:18:12;;;;;;;7.80;2.70;;;19.10;98.60;;;;;;5012506;28;20057;-84
2022/08/14 03:20:39;;;;;;;2.47;2.28;;;19.10;98.60;;;;;;5009816;28;20033;-84
2022/08/14 03:23:05;;;;;;;3.38;2.95;;;19.10;98.70;;;;;;5009871;28;20381;-85
2022/08/14 03:25:34;;;;;;;3.17;2.88;;;19.00;98.80;;;;;;5010217;28;20029;-82
2022/08/14 03:28:08;;;;;;;3.22;2.60;;;19.00;98.90;;;;;;5011065;28;20030;-84
2022/08/14 03:30:35;;;;;;;4.45;2.65;;;19.00;98.90;;;;;;5011580;28;20026;-83
2022/08/14 03:33:01;;;;;;;2.75;2.55;;;19.00;99.00;;;;;;5010687;28;20396;-82
2022/08/14 03:35:28;;;;;;;3.00;2.55;;;19.00;99.10;;;;;;5011784;28;20292;-82
2022/08/14 03:37:54;;;;;;;2.92;2.50;;;19.00;99.20;;;;;;5012043;28;20503;-82
2022/08/14 03:40:23;;;;;;;3.00;2.60;;;19.00;99.30;;;;;;5011400;28;20022;-81
2022/08/14 03:42:50;;;;;;;2.67;2.38;;;19.00;99.40;;;;;;5011428;28;20137;-83
2022/08/14 03:45:16;;;;;;;3.47;2.53;;;19.00;99.40;;;;;;5012978;28;20484;-82
2022/08/14 03:47:42;;;;;;;2.88;2.45;;;19.00;99.40;;;;;;5010881;28;20030;-81
2022/08/14 03:50:09;;;;;;;4.20;2.70;;;19.00;99.50;;;;;;5011183;28;20427;-81
2022/08/14 03:52:39;;;;;;;2.67;2.47;;;19.00;99.60;;;;;;5009942;28;20077;-84
2022/08/14 03:55:11;;;;;;;3.90;2.83;;;19.00;99.70;;;;;;5011787;28;20157;-84
2022/08/14 03:57:38;;;;;;;4.00;2.33;;;19.00;99.70;;;;;;5009343;28;20022;-84
2022/08/14 04:00:09;;;;;;;4.40;2.70;;;18.90;99.80;;;;;;5011256;28;20304;-85
2022/08/14 04:02:37;;;;;;;6.38;2.63;;;18.90;99.90;;;;;;5010724;28;20037;-84
2022/08/14 04:05:07;;;;;;;2.75;2.50;;;18.90;99.90;;;;;;5009341;28;20026;-84
2022/08/14 04:07:33;;;;;;;5.95;3.00;;;18.90;99.90;;;;;;5009906;28;20030;-86
2022/08/14 04:09:59;;;;;;;3.75;2.65;;;18.90;99.90;;;;;;5011187;28;20500;-83
2022/08/14 04:12:26;;;;;;;4.15;2.72;;;18.80;99.90;;;;;;5012222;28;20033;-85
2022/08/14 04:14:52;;;;;;;2.72;2.33;;;18.90;99.90;;;;;;5010728;28;20058;-85
2022/08/14 04:17:19;;;;;;;10.93;3.00;;;18.80;99.90;;;;;;5009979;28;20058;-85
2022/08/14 04:19:46;;;;;;;3.47;2.42;;;18.90;99.90;;;;;;5011467;28;20052;-84
2022/08/14 04:22:12;;;;;;;5.85;2.42;;;18.90;99.90;;;;;;5012129;28;20484;-85
2022/08/14 04:24:39;;;;;;;2.60;2.40;;;18.90;99.90;;;;;;5010327;28;20064;-85
2022/08/14 04:27:10;;;;;;;4.60;2.53;;;18.90;99.90;;;;;;5010367;28;20033;-84
2022/08/14 04:29:41;;;;;;;2.45;2.22;;;18.90;99.90;;;;;;5009993;28;20081;-85
2022/08/14 04:32:08;;;;;;;3.42;2.60;;;19.00;99.90;;;;;;5014191;28;20150;-85
2022/08/14 04:34:38;;;;;;;3.38;2.63;;;19.00;99.90;;;;;;5014750;28;20070;-84
2022/08/14 04:45:24;;;;;;;2.97;2.72;;;19.10;99.90;;;;;;5013274;28;20068;-86
2022/08/14 04:50:36;;;;;;;2.75;2.50;;;19.20;99.90;;;;;;5015200;28;20375;-86
2022/08/14 04:53:02;;;;;;;2.53;2.33;;;19.20;99.90;;;;;;5013823;28;20519;-85
2022/08/14 04:55:28;;;;;;;3.05;2.67;;;19.30;99.90;;;;;;5014372;28;20061;-85
2022/08/14 04:57:55;;;;;;;3.97;2.60;;;19.40;99.90;;;;;;5013670;28;20476;-88
2022/08/14 05:00:21;;;;;;;2.50;2.33;;;19.40;99.90;;;;;;5012871;28;20510;-85
2022/08/14 05:02:47;;;;;;;4.13;2.40;;;19.50;99.90;;;;;;5014008;28;20485;-86
2022/08/14 05:05:13;;;;;;;3.13;2.80;;;19.50;99.90;;;;;;5012646;28;20025;-88
2022/08/14 05:07:41;;;;;;;3.15;2.42;;;19.60;99.90;;;;;;5014240;28;20026;-85
2022/08/14 05:10:07;;;;;;;6.05;2.65;;;19.70;99.90;;;;;;5014118;28;20018;-85
2022/08/14 05:12:33;;;;;;;4.32;2.90;;;19.70;99.90;;;;;;5014130;28;20029;-86
2022/08/14 05:14:58;;;;;;;2.50;2.30;;;19.80;99.90;;;;;;5013936;28;20026;-86
2022/08/14 05:17:25;;;;;;;2.92;2.63;;;19.90;99.90;;;;;;5014037;28;20022;-86
2022/08/14 05:19:51;;;;;;;6.68;2.90;;;19.90;99.70;;;;;;5012948;28;20022;-84
2022/08/14 05:22:18;;;;;;;2.50;2.30;;;20.00;99.50;;;;;;5011805;28;20454;-84
2022/08/14 05:24:48;;;;;;;2.78;2.38;;;20.10;99.40;;;;;;5012966;28;20029;-86
2022/08/14 05:27:14;;;;;;;6.20;2.53;;;20.10;99.30;;;;;;5012653;28;20068;-85
2022/08/14 05:29:43;;;;;;;3.17;2.45;;;20.10;99.30;;;;;;5012517;28;20169;-85
2022/08/14 05:32:09;;;;;;;6.32;2.28;;;20.20;99.20;;;;;;5012185;28;20191;-85
2022/08/14 05:34:35;;;;;;;4.60;2.35;;;20.20;99.20;;;;;;5013666;28;20026;-85
2022/08/14 05:37:02;;;;;;;2.97;2.25;;;20.30;98.80;;;;;;5013437;28;20022;-86
2022/08/14 05:39:28;;;;;;;7.68;2.40;;;20.40;98.80;;;;;;5012238;28;20108;-83
2022/08/14 05:41:55;;;;;;;4.47;2.10;;;20.40;98.40;;;;;;5011066;28;20029;-85
2022/08/14 05:44:21;;;;;;;4.70;2.10;;;20.50;98.20;;;;;;5013115;28;20382;-85
2022/08/14 05:46:47;;;;;;;4.28;2.30;;;20.50;98.20;;;;;;5011849;28;20030;-87
2022/08/14 05:49:14;;;;;;;3.30;2.40;;;20.60;98.20;;;;;;5013421;28;20018;-85
2022/08/14 05:51:40;;;;;;;2.42;2.10;;;20.70;98.30;;;;;;5013163;28;20032;-85
2022/08/14 05:54:06;;;;;;;3.08;2.30;;;20.80;98.30;;;;;;5012073;28;20021;-86
2022/08/14 05:56:32;;;;;;;4.57;2.38;;;20.80;98.10;;;;;;5012548;28;20030;-85
2022/08/14 05:58:58;;;;;;;4.75;2.17;;;20.90;97.90;;;;;;5011684;28;20586;-87
2022/08/14 06:01:24;;;;;;;2.50;2.28;;;20.90;97.80;;;;;;5012862;28;20037;-86
2022/08/14 06:03:50;;;;;;;2.50;2.20;;;21.00;97.80;;;;;;5011867;28;20038;-86
2022/08/14 06:06:17;;;;;;;3.33;2.35;;;21.00;97.40;;;;;;5012550;28;20029;-86
2022/08/14 06:08:43;;;;;;;4.32;2.38;;;21.10;97.40;;;;;;5012794;28;20085;-86
2022/08/14 06:11:09;;;;;;;4.50;2.88;;;21.30;97.50;;;;;;5013692;28;20178;-87
2022/08/14 06:13:40;;;;;;;5.57;3.05;;;21.40;97.10;;;;;;5011405;28;20128;-88
2022/08/14 06:16:06;;;;;;;4.78;2.60;;;21.50;96.70;;;;;;5013723;28;20026;-88
2022/08/14 06:18:34;;;;;;;10.13;2.53;;;21.60;96.70;;;;;;5013172;28;20033;-87
2022/08/14 06:21:03;;;;;;;3.42;2.58;;;21.70;96.70;;;;;;5011914;28;20022;-87
2022/08/14 06:23:29;;;;;;;6.43;2.63;;;21.70;96.50;;;;;;5012731;28;20077;-87
2022/08/14 06:25:54;;;;;;;4.97;2.65;;;21.90;96.50;;;;;;5013137;28;20452;-87
2022/08/14 06:28:22;;;;;;;5.85;2.35;;;21.90;96.50;;;;;;5012740;28;20484;-87
2022/08/14 06:30:49;;;;;;;7.00;3.13;;;22.00;96.30;;;;;;5012684;28;20544;-86
2022/08/14 06:33:17;;;;;;;4.70;2.67;;;22.10;96.20;;;;;;5012473;28;20034;-86
2022/08/14 06:35:44;;;;;;;3.83;2.53;;;22.20;96.10;;;;;;5013306;28;20053;-87
2022/08/14 06:38:18;;;;;;;4.40;2.65;;;22.30;96.00;;;;;;5011818;28;20460;-88
2022/08/14 06:40:45;;;;;;;3.95;2.88;;;22.40;95.80;;;;;;5011872;28;20487;-86
2022/08/14 06:43:11;;;;;;;7.10;2.72;;;22.50;95.60;;;;;;5012006;28;20404;-87
2022/08/14 06:45:39;;;;;;;6.47;2.95;;;22.60;95.70;;;;;;5012920;28;20477;-86
2022/08/14 06:48:16;;;;;;;5.05;3.10;;;22.70;95.60;;;;;;5011823;28;20033;-87
2022/08/14 06:50:43;;;;;;;6.35;2.53;;;22.70;95.60;;;;;;5011638;28;20029;-86
2022/08/14 06:53:09;;;;;;;6.35;3.65;;;22.80;95.80;;;;;;5010600;28;20350;-87
2022/08/14 06:55:35;;;;;;;4.15;3.10;;;22.90;95.50;;;;;;5012560;28;20032;-86
2022/08/14 06:58:00;;;;;;;4.38;3.47;;;22.90;95.00;;;;;;5012957;28;20034;-91
2022/08/14 07:00:28;;;;;;;6.85;3.65;;;22.90;95.20;;;;;;5014941;28;20026;-92
2022/08/14 07:05:46;;;;;;;8.45;2.78;;;23.00;95.40;;;;;;5013203;28;20033;-90
2022/08/14 07:08:17;;;;;;;3.55;2.80;;;23.00;94.90;;;;;;5013097;28;20117;-90
2022/08/14 07:10:44;;;;;;;3.08;2.78;;;23.00;94.40;;;;;;5010389;28;20025;-91
2022/08/14 07:13:12;;;;;;;4.80;2.85;;;23.00;94.30;;;;;;5012094;28;20061;-90
2022/08/14 07:15:38;;;;;;;4.53;2.55;;;23.10;95.20;;;;;;5015723;28;20048;-88
2022/08/14 07:18:04;;;;;;;3.03;2.58;;;23.10;95.10;;;;;;5012795;28;20108;-91
2022/08/14 07:20:30;;;;;;;5.07;2.80;;;23.20;95.10;;;;;;5012549;28;20392;-89
2022/08/14 07:22:57;;;;;;;7.30;2.60;;;23.20;94.40;;;;;;5013995;28;20038;-91
2022/08/14 07:25:24;;;;;;;5.40;2.60;;;23.30;94.50;;;;;;5015140;28;20166;-91
2022/08/14 07:27:50;;;;;;;3.40;2.28;;;23.30;94.30;;;;;;5011569;28;20034;-89
2022/08/14 07:30:16;;;;;;;4.72;2.10;;;23.40;93.70;;;;;;5012334;28;20061;-91
2022/08/14 07:32:42;;;;;;;2.97;2.30;;;23.50;93.30;;;;;;5013693;28;20030;-90
2022/08/14 07:35:08;;;;;;;2.58;1.90;;;23.50;92.80;;;;;;5013836;28;20033;-90
2022/08/14 07:37:33;;;;;;;4.82;2.08;;;23.60;90.90;;;;;;5014129;28;20105;-91
2022/08/14 07:40:04;;;;;;;5.85;2.10;;;23.60;91.30;;;;;;5013525;28;20018;-91
2022/08/14 07:42:31;;;;;;;5.50;1.83;;;23.70;91.60;;;;;;5013466;28;20476;-92
2022/08/14 07:44:58;;;;;;;2.92;2.30;;;23.70;91.20;;;;;;5025793;28;20014;-90
2022/08/14 07:47:24;;;;;;;4.72;2.33;;;23.90;90.90;;;;;;5040302;28;20026;-87
2022/08/14 07:50:11;;;;;;;2.33;1.90;;;23.90;90.50;;;;;;5013677;28;20385;-86
2022/08/14 07:52:37;;;;;;;3.38;2.10;;;24.00;90.80;;;;;;5008104;28;20136;-86
2022/08/14 07:55:05;;;;;;;3.75;2.05;;;24.00;91.20;;;;;;5011133;28;20109;-86
2022/08/14 07:57:31;;;;;;;4.13;2.20;;;24.10;88.90;;;;;;5011432;28;20503;-86
2022/08/14 07:59:56;;;;;;;6.85;3.35;;;24.10;89.80;;;;;;5012020;28;20030;-89
2022/08/14 08:02:26;;;;;;;6.00;2.58;;;24.20;90.60;;;;;;5011510;28;20022;-87
2022/08/14 08:04:55;;;;;;;2.75;2.10;;;24.30;89.70;;;;;;5011070;28;20034;-87
2022/08/14 08:07:25;;;;;;;6.82;2.10;;;24.30;89.10;;;;;;5013506;28;20045;-86
2022/08/14 08:09:56;;;;;;;5.35;1.88;;;24.40;89.40;;;;;;5015693;28;20022;-87
2022/08/14 08:12:24;;;;;;;3.75;2.05;;;24.40;87.90;;;;;;5015554;28;20476;-88
2022/08/14 08:14:51;;;;;;;3.50;2.38;;;24.30;89.00;;;;;;5014769;28;20026;-86
2022/08/14 08:17:19;;;;;;;2.33;2.10;;;24.30;89.10;;;;;;5015462;28;20101;-88
2022/08/14 08:19:47;;;;;;;5.22;2.38;;;24.30;89.80;;;;;;5015941;28;20049;-88
2022/08/14 08:22:13;;;;;;;2.78;2.17;;;24.30;90.30;;;;;;5015297;28;20129;-89
2022/08/14 08:24:38;;;;;;;7.38;2.72;;;24.30;90.30;;;;;;5017041;28;20018;-88
2022/08/14 08:27:17;;;;;;;3.20;2.42;;;24.30;90.80;;;;;;5013265;28;20072;-89
2022/08/14 08:29:42;;;;;;;6.40;2.05;;;24.40;89.60;;;;;;5012857;28;20514;-89
2022/08/14 08:32:08;;;;;;;9.18;2.55;;;24.40;90.50;;;;;;5013170;28;20025;-87
2022/08/14 08:34:47;;;;;;;3.25;2.28;;;24.50;90.20;;;;;;5013778;28;20022;-89
2022/08/14 08:37:14;;;;;;;2.40;2.13;;;24.60;90.00;;;;;;5013364;28;20427;-88
2022/08/14 08:39:47;;;;;;;3.90;2.17;;;24.70;88.60;;;;;;5016109;28;20026;-90
2022/08/14 08:42:24;;;;;;;4.25;2.20;;;24.70;89.20;;;;;;5014134;28;20076;-87
2022/08/14 08:44:54;;;;;;;4.70;2.30;;;24.80;88.90;;;;;;5013190;28;20042;-85
2022/08/14 08:47:19;;;;;;;3.22;2.28;;;24.90;88.00;;;;;;5013808;28;20060;-87
2022/08/14 08:49:45;;;;;;;6.00;2.38;;;24.80;87.50;;;;;;5013452;28;20053;-87
2022/08/14 08:52:11;;;;;;;4.03;2.33;;;24.70;87.80;;;;;;5012392;28;20037;-87
2022/08/14 08:54:38;;;;;;;4.03;2.20;;;24.70;87.60;;;;;;5012730;28;20036;-82
2022/08/14 08:57:11;;;;;;;5.03;2.28;;;24.80;87.50;;;;;;5013467;28;20041;-81
2022/08/14 08:59:37;;;;;;;4.97;1.88;;;24.80;88.10;;;;;;5012412;28;20117;-80
2022/08/14 09:02:06;;;;;;;5.60;2.40;;;24.90;88.20;;;;;;5012878;28;20112;-78
2022/08/14 09:04:37;;;;;;;5.10;2.08;;;24.90;87.50;;;;;;5012471;28;20069;-81
2022/08/14 09:07:04;;;;;;;2.90;2.07;;;24.90;87.70;;;;;;5011560;28;20177;-76
2022/08/14 09:09:31;;;;;;;2.33;2.13;;;24.90;87.90;;;;;;5012134;28;20715;-79
2022/08/14 09:11:59;;;;;;;3.92;2.15;;;25.00;87.70;;;;;;5012713;28;20021;-77
2022/08/14 09:14:29;;;;;;;3.42;2.25;;;25.00;87.80;;;;;;5012399;28;20033;-79
2022/08/14 09:16:56;;;;;;;7.45;2.25;;;24.80;88.30;;;;;;5011519;28;20025;-81
2022/08/14 09:19:22;;;;;;;3.25;1.90;;;24.90;89.20;;;;;;5011249;28;20037;-81
2022/08/14 09:21:48;;;;;;;4.20;2.35;;;24.90;85.80;;;;;;5012865;28;20030;-87
2022/08/14 09:24:14;;;;;;;13.00;3.03;;;24.90;87.00;;;;;;5028418;28;20072;-80
2022/08/14 09:26:42;;;;;;;2.72;2.25;;;25.00;87.40;;;;;;5013210;28;20028;-81
2022/08/14 09:29:08;;;;;;;3.33;2.28;;;25.00;87.40;;;;;;5012512;28;20022;-77
2022/08/14 09:31:39;;;;;;;5.57;2.65;;;24.90;88.20;;;;;;5013152;28;20061;-78
2022/08/14 09:34:20;;;;;;;12.07;1.95;;;25.00;87.30;;;;;;5012387;28;20030;-76
2022/08/14 09:37:09;;;;;;;2.28;1.98;;;25.00;86.10;;;;;;5012431;28;20045;-75
2022/08/14 09:40:07;;;;;;;5.00;2.42;;;25.00;85.00;;;;;;5027564;28;20022;-76
2022/08/14 09:43:03;;;;;;;11.90;3.65;;;25.20;86.30;;;;;;5012073;28;20496;-76
2022/08/14 09:45:43;;;;;;;8.65;2.42;;;25.20;83.80;;;;;;5008959;28;20046;-76
2022/08/14 09:48:17;;;;;;;2.67;2.15;;;25.20;85.00;;;;;;5011780;28;20038;-75
2022/08/14 09:50:50;;;;;;;7.38;2.75;;;25.10;87.10;;;;;;5012764;28;20026;-75
2022/08/14 09:53:40;;;;;;;5.78;2.78;;;25.20;87.20;;;;;;5011794;28;20042;-76
2022/08/14 09:56:07;;;;;;;3.05;2.00;;;25.20;86.70;;;;;;4992918;28;20022;-75
2022/08/14 09:58:39;;;;;;;8.55;3.45;;;25.10;86.80;;;;;;5007932;28;20029;-76
2022/08/14 10:01:13;;;;;;;4.40;2.03;;;25.10;86.10;;;;;;5010955;28;20396;-75
2022/08/14 10:03:49;;;;;;;13.07;3.55;;;25.10;85.40;;;;;;5026572;28;20042;-81
2022/08/14 10:06:17;;;;;;;3.33;2.20;;;25.00;85.50;;;;;;4992862;28;20034;-77
2022/08/14 10:09:04;;;;;;;5.97;2.20;;;24.90;87.00;;;;;;5009324;28;20365;-76
2022/08/14 10:11:36;;;;;;;4.50;2.42;;;25.00;87.00;;;;;;4991481;28;20092;-75
2022/08/14 10:14:17;;;;;;;2.30;1.92;;;25.10;88.60;;;;;;5010907;28;20121;-74
2022/08/14 10:16:53;;;;;;;4.50;2.42;;;25.20;88.90;;;;;;5011661;28;20029;-75
2022/08/14 10:19:23;;;;;;;2.40;1.90;;;25.30;90.00;;;;;;5011260;28;20459;-75
2022/08/14 10:21:57;;;;;;;4.05;2.00;;;25.40;90.20;;;;;;5010307;28;20026;-74
2022/08/14 10:24:25;;;;;;;5.03;2.47;;;25.50;90.30;;;;;;5012148;28;20030;-75
2022/08/14 10:26:58;;;;;;;6.28;2.67;;;25.30;90.50;;;;;;5011098;28;20033;-75
2022/08/14 10:29:36;;;;;;;6.88;2.50;;;25.30;91.50;;;;;;5025693;28;20389;-75
2022/08/14 10:32:03;;;;;;;3.05;2.20;;;25.30;91.80;;;;;;5011278;28;20851;-75
2022/08/14 10:34:40;;;;;;;3.15;2.33;;;25.20;91.50;;;;;;5010196;28;20369;-73
2022/08/14 10:37:10;;;;;;;2.92;2.33;;;25.10;91.30;;;;;;5006503;28;20076;-75
2022/08/14 10:39:38;;;;;;;2.97;1.80;;;25.10;91.20;;;;;;5009751;28;20022;-75
2022/08/14 10:42:04;;;;;;;5.03;2.53;;;25.30;91.00;;;;;;5010032;28;20518;-75
2022/08/14 10:44:48;;;;;;;2.95;2.00;;;25.40;89.80;;;;;;5025216;28;20042;-74
2022/08/14 10:47:17;;;;;;;8.98;2.30;;;25.40;88.80;;;;;;5009710;28;20022;-74
2022/08/14 10:49:58;;;;;;;3.83;2.15;;;25.30;90.10;;;;;;5009289;28;20022;-77
2022/08/14 10:52:31;;;;;;;4.15;2.20;;;25.40;90.30;;;;;;5010983;28;20072;-73
2022/08/14 10:55:08;;;;;;;3.10;2.00;;;25.30;90.00;;;;;;5010112;28;20125;-73
2022/08/14 10:57:45;;;;;;;4.05;1.90;;;25.30;89.60;;;;;;5010923;28;20118;-73
2022/08/14 11:00:15;;;;;;;3.47;2.08;;;25.30;88.70;;;;;;5003863;28;20436;-74
2022/08/14 11:02:41;;;;;;;3.08;1.88;;;25.40;88.10;;;;;;5009065;28;20489;-74
2022/08/14 11:05:14;;;;;;;6.70;2.15;;;25.50;89.20;;;;;;5011276;28;20026;-74
2022/08/14 11:07:55;;;;;;;2.58;2.28;;;25.50;89.20;;;;;;5010533;28;20025;-74
2022/08/14 11:10:45;;;;;;;5.25;2.40;;;25.40;90.00;;;;;;5005391;28;20397;-73
2022/08/14 11:13:20;;;;;;;2.35;2.03;;;25.40;90.10;;;;;;5009997;28;20165;-73
2022/08/14 11:15:47;;;;;;;3.67;2.22;;;25.40;90.20;;;;;;5012534;28;20084;-73
2022/08/14 11:18:14;;;;;;;2.20;1.90;;;25.40;90.80;;;;;;5009144;28;20371;-74
2022/08/14 11:20:48;;;;;;;2.38;2.17;;;25.50;90.60;;;;;;5011541;28;20326;-75
2022/08/14 11:23:16;;;;;;;3.13;1.83;;;25.50;90.40;;;;;;5010357;28;20037;-73
2022/08/14 11:25:44;;;;;;;8.02;2.00;;;25.50;89.10;;;;;;5009961;28;20392;-73
2022/08/14 11:28:15;;;;;;;4.85;2.03;;;25.60;89.50;;;;;;5010342;28;20053;-73
2022/08/14 11:30:46;;;;;;;2.90;2.00;;;25.80;90.20;;;;;;5010937;28;20026;-73
2022/08/14 11:33:12;;;;;;;5.38;2.05;;;25.90;90.20;;;;;;5008857;28;20030;-73
2022/08/14 11:35:38;;;;;;;2.72;2.03;;;26.00;89.80;;;;;;5010831;28;20026;-73
2022/08/14 11:38:06;;;;;;;2.42;1.92;;;26.10;90.10;;;;;;5010422;28;20030;-73
2022/08/14 11:40:37;;;;;;;3.92;2.00;;;26.20;87.60;;;;;;5011946;28;20026;-74
2022/08/14 11:43:06;;;;;;;3.47;2.15;;;26.20;85.80;;;;;;5014375;28;20030;-74
2022/08/14 11:45:36;;;;;;;3.25;1.98;;;26.20;86.90;;;;;;5016102;28;20037;-73
2022/08/14 11:48:24;;;;;;;4.15;1.80;;;26.40;87.30;;;;;;5014017;28;20499;-73
2022/08/14 11:50:53;;;;;;;4.75;2.20;;;26.30;84.30;;;;;;5013572;28;20488;-75
2022/08/14 11:53:29;;;;;;;3.90;1.65;;;26.50;87.30;;;;;;5012693;28;20476;-75
2022/08/14 11:56:05;;;;;;;1.88;1.77;;;26.40;85.00;;;;;;5013347;28;20124;-73
2022/08/14 11:58:33;;;;;;;3.42;1.83;;;26.40;83.30;;;;;;5029238;28;20456;-73
2022/08/14 12:01:03;;;;;;;2.22;1.80;;;26.60;82.10;;;;;;5014696;28;20014;-74
2022/08/14 12:03:45;;;;;;;5.28;2.17;;;26.50;83.10;;;;;;5013777;28;20030;-74
2022/08/14 12:06:13;;;;;;;2.13;1.90;;;26.50;84.70;;;;;;5014048;28;20030;-75
2022/08/14 12:08:39;;;;;;;5.30;2.20;;;26.60;82.70;;;;;;5012593;28;20192;-73
2022/08/14 12:11:12;;;;;;;2.70;1.90;;;26.60;82.90;;;;;;5013277;28;20514;-74
2022/08/14 12:13:38;;;;;;;;;;;27.30;82.00;;;;;;5013076;28;20373;-73
2022/08/14 12:16:11;;;;;;;1.55;1.45;;;28.90;79.90;;;;;;5014376;28;19988;-76
2022/08/14 12:18:40;;;;;;;2.03;1.77;;;30.40;75.20;;;;;;5013658;28;20030;-75
2022/08/14 12:21:16;;;;;;;1.65;1.55;;;31.90;71.70;;;;;;5028321;28;20034;-75
2022/08/14 12:23:44;;;;;;;2.65;1.50;;;33.00;68.80;;;;;;5013500;28;20129;-76
2022/08/14 12:26:16;;;;;;;3.30;1.80;;;33.40;68.40;;;;;;5013004;28;20034;-74
2022/08/14 12:28:42;;;;;;;4.57;1.70;;;34.20;65.30;;;;;;5013583;28;20065;-76
2022/08/14 12:31:18;;;;;;;4.78;1.90;;;35.30;64.10;;;;;;5013071;28;20022;-77
2022/08/14 12:34:05;;;;;;;1.80;1.48;;;35.80;63.00;;;;;;5013515;28;20025;-77
2022/08/14 12:36:31;;;;;;;6.00;1.73;;;36.10;61.50;;;;;;4994661;28;20133;-77
2022/08/14 12:38:59;;;;;;;3.35;1.80;;;36.60;60.70;;;;;;5013349;28;20112;-77
2022/08/14 12:41:33;;;;;;;1.83;1.60;;;37.20;59.60;;;;;;5013967;28;20069;-76
2022/08/14 12:44:02;;;;;;;2.85;1.70;;;38.10;58.00;;;;;;5014757;28;20033;-74
2022/08/14 12:46:40;;;;;;;2.67;1.50;;;38.10;57.30;;;;;;5013912;28;20104;-75
2022/08/14 12:49:12;;;;;;;3.58;1.75;;;38.40;57.60;;;;;;5013432;28;20456;-76
2022/08/14 12:51:38;;;;;;;1.77;1.40;;;37.90;56.70;;;;;;5013275;28;20018;-75
2022/08/14 12:54:16;;;;;;;2.55;1.50;;;37.50;57.90;;;;;;5013379;28;20071;-75
2022/08/14 12:56:42;;;;;;;1.65;1.30;;;36.90;58.80;;;;;;5012140;28;20443;-74
2022/08/14 12:59:08;;;;;;;1.92;1.60;;;36.30;58.80;;;;;;5013298;28;20021;-74
2022/08/14 13:01:35;;;;;;;5.32;1.75;;;36.10;59.30;;;;;;5013405;28;20523;-76
2022/08/14 13:04:07;;;;;;;1.95;1.40;;;36.30;58.80;;;;;;5011193;28;20076;-77
2022/08/14 13:06:34;;;;;;;4.28;1.70;;;36.60;59.20;;;;;;5013464;28;20022;-80
2022/08/14 13:09:01;;;;;;;1.73;1.30;;;36.70;59.10;;;;;;5012557;28;20026;-77
2022/08/14 13:11:37;;;;;;;3.88;1.30;;;36.30;60.30;;;;;;5011864;28;20054;-77
2022/08/14 13:14:03;;;;;;;10.00;1.73;;;37.20;59.40;;;;;;5012120;28;20037;-76
2022/08/14 13:16:29;;;;;;;4.72;1.40;;;37.60;59.00;;;;;;5013361;28;20021;-76